Time;durP1;ratioP1;P1;durP2;ratioP2;P2;SDS_P1;SDS_P2;PMS_P1;PMS_P2;Temp;Humidity;BMP_temperature;BMP_pressure;BME280_temperature;BME280_humidity;BME280_pressure;Samples;Min_cycle;Max_cycle;Signal;HPM_P1;HPM_P2
2022/03/29 00:00:59;;;;;;;25.00;14.83;;;;;;;12.93;54.03;95056.59;5032118;28;20442;-78
2022/03/29 00:03:26;;;;;;;18.53;13.73;;;;;;;12.87;54.11;95062.44;5032114;28;20462;-77
2022/03/29 00:05:54;;;;;;;23.60;15.07;;;;;;;12.83;54.60;95055.78;5032066;28;20450;-78
2022/03/29 00:08:21;;;;;;;22.80;15.00;;;;;;;12.82;54.06;95054.97;5031965;28;20468;-77
2022/03/29 00:10:48;;;;;;;21.17;14.40;;;;;;;12.79;54.57;95049.97;4996937;28;20775;-78
2022/03/29 00:13:14;;;;;;;22.90;14.53;;;;;;;12.75;54.53;95045.97;5031748;28;20446;-78
2022/03/29 00:19:05;;;;;;;20.50;13.93;;;;;;;12.53;54.58;95038.34;5031806;28;20477;-78
2022/03/29 00:21:32;;;;;;;18.70;12.37;;;;;;;12.47;54.20;95041.53;5012966;28;20798;-78
2022/03/29 00:23:59;;;;;;;17.33;12.87;;;;;;;12.39;54.70;95031.66;5031899;28;20456;-78
2022/03/29 00:26:26;;;;;;;19.73;14.53;;;;;;;12.38;54.49;95035.28;5031830;28;20453;-77
2022/03/29 00:28:53;;;;;;;22.10;12.50;;;;;;;12.39;54.83;95037.75;5031635;28;20525;-77
2022/03/29 00:31:20;;;;;;;20.87;13.13;;;;;;;12.35;55.41;95025.84;5031706;28;20969;-78
2022/03/29 00:33:48;;;;;;;18.67;13.50;;;;;;;12.32;54.53;95026.13;5031651;28;20453;-78
2022/03/29 00:36:17;;;;;;;20.33;14.40;;;;;;;12.31;54.58;95016.56;5032011;28;20458;-78
2022/03/29 00:38:46;;;;;;;17.77;12.77;;;;;;;12.32;55.21;95020.03;5031824;28;20481;-77
2022/03/29 00:41:13;;;;;;;18.20;13.60;;;;;;;12.32;55.27;95012.97;5031616;28;20439;-77
2022/03/29 00:43:40;;;;;;;18.10;13.33;;;;;;;12.37;54.89;95008.13;5031712;28;20462;-78
2022/03/29 00:46:07;;;;;;;19.03;12.27;;;;;;;12.36;54.07;95009.09;5031618;28;20486;-77
2022/03/29 00:48:34;;;;;;;21.17;12.57;;;;;;;12.36;54.59;95001.19;5031736;28;20439;-77
2022/03/29 00:51:02;;;;;;;17.30;12.67;;;;;;;12.37;54.14;95002.88;5031872;28;20450;-77
2022/03/29 00:53:32;;;;;;;20.37;12.83;;;;;;;12.36;55.00;95001.19;4996805;28;20447;-77
2022/03/29 00:55:59;;;;;;;19.40;12.17;;;;;;;12.33;54.52;94996.22;4997124;28;20941;-77
2022/03/29 00:58:26;;;;;;;20.93;12.93;;;;;;;12.29;55.63;94994.84;5031502;28;20559;-78
2022/03/29 01:00:58;;;;;;;17.67;13.23;;;;;;;12.22;55.26;94995.53;5033837;28;20450;-77
2022/03/29 01:03:25;;;;;;;16.70;11.93;;;;;;;12.13;55.73;94991.91;5035231;28;20454;-78
2022/03/29 01:05:52;;;;;;;17.37;12.20;;;;;;;12.04;56.56;94996.19;5035108;28;20450;-78
2022/03/29 01:08:19;;;;;;;15.70;11.93;;;;;;;11.98;56.46;94990.66;5034960;28;20447;-78
2022/03/29 01:10:48;;;;;;;16.53;12.50;;;;;;;11.94;56.74;94979.56;5034973;28;20442;-78
2022/03/29 01:13:16;;;;;;;19.50;11.90;;;;;;;11.92;56.06;94978.06;5034809;28;20442;-77
2022/03/29 01:15:43;;;;;;;17.07;12.13;;;;;;;11.88;56.65;94971.41;5034842;28;20473;-78
2022/03/29 01:18:11;;;;;;;22.03;12.70;;;;;;;11.88;56.22;94974.03;5034618;28;20454;-77
2022/03/29 01:20:39;;;;;;;20.17;12.77;;;;;;;11.84;55.49;94967.38;5034865;28;20451;-78
2022/03/29 01:23:09;;;;;;;17.30;13.37;;;;;;;11.84;55.68;94962.94;5034739;28;20953;-78
2022/03/29 01:25:38;;;;;;;19.80;11.77;;;;;;;11.78;57.34;94966.94;5034696;28;20930;-77
2022/03/29 01:28:06;;;;;;;15.90;10.77;;;;;;;11.73;56.47;94961.22;5034797;28;20459;-77
2022/03/29 01:30:36;;;;;;;17.63;11.60;;;;;;;11.71;56.46;94955.28;5034823;28;20809;-78
2022/03/29 01:33:07;;;;;;;19.20;11.00;;;;;;;11.70;55.72;94953.63;5034747;28;20819;-77
2022/03/29 01:35:34;;;;;;;17.13;11.30;;;;;;;11.70;55.87;94955.41;5034485;28;20957;-78
2022/03/29 01:38:03;;;;;;;19.57;11.17;;;;;;;11.70;56.11;94944.91;5034278;28;20453;-78
2022/03/29 01:40:31;;;;;;;13.60;11.87;;;;;;;11.70;55.90;94939.66;5016186;28;20442;-78
2022/03/29 01:43:00;;;;;;;15.80;12.10;;;;;;;11.61;56.44;94927.31;5034193;28;20455;-77
2022/03/29 01:45:29;;;;;;;19.77;10.50;;;;;;;11.48;56.53;94927.56;5034314;28;20521;-77
2022/03/29 01:47:57;;;;;;;16.00;11.70;;;;;;;11.41;57.53;94929.06;5034548;28;20447;-77
2022/03/29 01:50:24;;;;;;;14.27;11.87;;;;;;;11.33;57.35;94926.28;5033997;28;20458;-77
2022/03/29 01:52:51;;;;;;;17.37;12.47;;;;;;;11.30;58.16;94921.31;5034538;28;20459;-79
2022/03/29 01:55:21;;;;;;;22.43;12.97;;;;;;;11.25;58.88;94913.78;5034118;28;20938;-77
2022/03/29 01:57:51;;;;;;;14.30;12.10;;;;;;;11.24;58.37;94919.19;5034260;28;20906;-77
2022/03/29 02:00:34;;;;;;;20.63;11.80;;;;;;;11.24;57.51;94924.44;5033839;28;20487;-78
2022/03/29 02:03:02;;;;;;;14.00;10.87;;;;;;;11.20;57.95;94923.03;5033931;28;20930;-78
2022/03/29 02:05:32;;;;;;;13.00;10.50;;;;;;;11.18;58.46;94913.50;5033789;28;20453;-77
2022/03/29 02:07:59;;;;;;;24.63;12.70;;;;;;;11.15;57.64;94912.94;5033708;28;20997;-77
2022/03/29 02:10:27;;;;;;;13.30;11.40;;;;;;;11.11;58.33;94909.75;5033662;28;20434;-78
2022/03/29 02:12:55;;;;;;;20.70;14.50;;;;;;;11.10;58.24;94904.63;5032692;28;20449;-78
2022/03/29 02:15:28;;;;;;;16.50;12.43;;;;;;;11.09;57.79;94903.81;5033889;28;20482;-77
2022/03/29 02:17:55;;;;;;;17.70;11.77;;;;;;;11.10;58.21;94894.13;5033583;28;20459;-78
2022/03/29 02:20:24;;;;;;;19.37;13.40;;;;;;;11.02;58.80;94888.72;5033310;28;20946;-78
2022/03/29 02:22:51;;;;;;;16.90;11.43;;;;;;;10.92;58.80;94882.59;5033785;28;20442;-77
2022/03/29 02:25:18;;;;;;;16.47;12.33;;;;;;;10.90;58.73;94887.13;5033337;28;20447;-78
2022/03/29 02:27:46;;;;;;;19.43;12.60;;;;;;;10.86;59.57;94886.56;5033611;28;20439;-77
2022/03/29 02:30:20;;;;;;;15.20;10.83;;;;;;;10.85;59.03;94887.53;5033724;28;20534;-78
2022/03/29 02:32:46;;;;;;;17.47;11.77;;;;;;;10.84;58.59;94885.88;5033561;28;20454;-78
2022/03/29 02:35:14;;;;;;;17.50;11.83;;;;;;;10.85;59.51;94882.28;5033344;28;20867;-77
2022/03/29 02:37:43;;;;;;;19.43;11.63;;;;;;;10.85;58.68;94885.75;5033312;28;20447;-77
2022/03/29 02:40:11;;;;;;;19.33;12.87;;;;;;;10.80;58.91;94881.84;5033166;28;20544;-78
2022/03/29 02:42:41;;;;;;;22.63;11.10;;;;;;;10.84;58.59;94885.88;5033205;28;20442;-78
2022/03/29 02:45:09;;;;;;;17.80;11.20;;;;;;;10.84;58.50;94897.22;5033211;28;20439;-78
2022/03/29 02:47:38;;;;;;;14.87;10.60;;;;;;;10.86;59.51;94889.19;4998484;28;20486;-78
2022/03/29 02:50:05;;;;;;;16.77;12.73;;;;;;;10.79;59.45;94882.81;4998092;28;20954;-77
2022/03/29 02:52:32;;;;;;;17.73;11.90;;;;;;;10.72;60.44;94886.94;5032849;28;20526;-78
2022/03/29 02:54:59;;;;;;;17.57;11.67;;;;;;;10.65;59.71;94883.16;5014620;28;20453;-78
2022/03/29 02:57:26;;;;;;;11.93;10.40;;;;;;;10.63;59.95;94883.28;5032927;28;20442;-77
2022/03/29 02:59:56;;;;;;;14.40;10.93;;;;;;;10.62;60.50;94884.25;5014330;28;20985;-78
2022/03/29 03:02:23;;;;;;;14.53;11.10;;;;;;;10.58;60.09;94882.84;5033047;28;20452;-77
2022/03/29 03:04:51;;;;;;;13.30;10.90;;;;;;;10.55;60.47;94877.88;5032862;28;20457;-78
2022/03/29 03:07:18;;;;;;;13.30;10.80;;;;;;;10.52;60.84;94876.34;5032708;28;20443;-77
2022/03/29 03:09:45;;;;;;;18.87;12.17;;;;;;;10.46;60.81;94884.72;5032580;28;20454;-78
2022/03/29 03:12:12;;;;;;;20.03;13.20;;;;;;;10.43;60.31;94882.38;5032311;28;20466;-78
2022/03/29 03:14:39;;;;;;;19.97;14.57;;;;;;;10.39;60.21;94882.72;5033481;28;20489;-78
2022/03/29 03:17:06;;;;;;;23.83;13.90;;;;;;;10.41;60.84;94880.84;5033527;28;20819;-78
2022/03/29 03:19:33;;;;;;;21.40;14.03;;;;;;;10.40;60.79;94885.22;4998537;28;20482;-78
2022/03/29 03:22:01;;;;;;;23.10;12.80;;;;;;;10.43;60.95;94890.25;5033714;28;20831;-78
2022/03/29 03:24:28;;;;;;;24.70;12.87;;;;;;;10.44;61.33;94880.59;5033338;28;20454;-77
2022/03/29 03:26:55;;;;;;;19.13;10.90;;;;;;;10.41;61.70;94881.69;4999592;28;20458;-78
2022/03/29 03:29:22;;;;;;;16.07;12.23;;;;;;;10.37;60.82;94876.78;4999440;28;20454;-77
2022/03/29 03:31:49;;;;;;;14.80;10.90;;;;;;;10.38;60.56;94876.66;5034018;28;20442;-78
2022/03/29 03:34:16;;;;;;;17.83;11.43;;;;;;;10.38;60.73;94876.66;5033975;28;20439;-77
2022/03/29 03:36:43;;;;;;;17.57;10.93;;;;;;;10.34;61.36;94879.66;5034220;28;20431;-77
2022/03/29 03:39:12;;;;;;;23.13;11.93;;;;;;;10.28;61.49;94881.03;5033830;28;20486;-77
2022/03/29 03:41:40;;;;;;;19.80;12.70;;;;;;;10.26;61.64;94874.25;5033773;28;20807;-77
2022/03/29 03:44:07;;;;;;;17.47;13.43;;;;;;;10.24;64.79;94880.44;5034050;28;20501;-79
2022/03/29 03:46:34;;;;;;;21.60;12.60;;;;;;;10.22;65.15;94873.69;5033331;28;20443;-78
2022/03/29 03:49:01;;;;;;;19.93;11.20;;;;;;;10.27;nan;94874.13;4999041;28;20576;-79
2022/03/29 03:54:51;;;;;;;17.33;11.37;;;;;;;10.19;62.55;94879.16;5032407;28;20433;-79
2022/03/29 03:57:18;;;;;;;19.20;12.13;;;;;;;10.14;62.37;94886.56;5033299;28;20446;-78
2022/03/29 03:59:48;;;;;;;19.42;13.85;;;;;;;10.13;61.95;94880.50;5032727;28;20445;-77
2022/03/29 04:02:15;;;;;;;17.53;12.87;;;;;;;10.17;61.41;94881.06;4998546;28;20192;-79
2022/03/29 04:04:42;;;;;;;21.10;12.70;;;;;;;10.18;61.82;94882.72;4998784;28;20453;-79
2022/03/29 04:07:09;;;;;;;35.73;12.20;;;;;;;10.21;61.61;94879.88;4998701;28;21140;-79
2022/03/29 04:09:36;;;;;;;28.73;13.77;;;;;;;10.19;61.62;94876.53;5033368;28;20816;-78
2022/03/29 04:12:05;;;;;;;18.87;13.10;;;;;;;10.14;62.01;94873.47;5000121;28;21586;-78
2022/03/29 04:14:32;;;;;;;21.77;11.90;;;;;;;10.07;62.26;94872.28;5018011;28;20472;-78
2022/03/29 04:16:59;;;;;;;16.27;12.30;;;;;;;10.06;62.96;94873.25;5053240;28;20430;-79
2022/03/29 04:22:55;;;;;;;23.90;12.20;;;;;;;9.93;62.82;94876.88;5052899;28;21150;-78
2022/03/29 04:25:22;;;;;;;17.30;11.90;;;;;;;9.88;62.86;94873.81;5053155;28;20991;-76
2022/03/29 04:27:50;;;;;;;17.23;12.30;;;;;;;9.87;63.49;94879.19;5053259;28;20430;-78
2022/03/29 04:30:17;;;;;;;19.27;12.20;;;;;;;9.86;63.05;94888.00;5052693;28;20430;-77
2022/03/29 04:32:44;;;;;;;20.10;12.60;;;;;;;9.82;63.47;94884.78;5052663;28;20434;-76
2022/03/29 04:45:23;;;;;;;20.17;12.40;;;;;;;9.93;63.64;94884.75;5056036;28;20884;-77
2022/03/29 04:47:50;;;;;;;48.30;14.40;;;;;;;10.03;63.07;94876.94;5056283;28;20925;-78
2022/03/29 04:50:17;;;;;;;23.60;13.97;;;;;;;10.15;63.11;94880.38;5020963;28;20446;-78
2022/03/29 04:52:46;;;;;;;26.67;12.23;;;;;;;10.23;62.64;94877.97;5056053;28;20936;-78
2022/03/29 04:55:14;;;;;;;31.80;12.87;;;;;;;10.38;62.87;94878.44;5056462;28;20528;-78
2022/03/29 04:57:42;;;;;;;21.83;11.63;;;;;;;10.50;62.76;94874.81;5056429;28;20438;-79
2022/03/29 05:00:10;;;;;;;20.80;13.03;;;;;;;10.60;64.11;94874.84;5056182;28;21037;-78
2022/03/29 05:02:39;;;;;;;24.67;12.80;;;;;;;10.88;67.06;94868.91;5056545;28;20936;-79
2022/03/29 05:05:07;;;;;;;27.60;11.73;;;;;;;11.25;66.29;94871.78;5040129;28;21020;-77
2022/03/29 05:07:34;;;;;;;30.90;13.90;;;;;;;11.50;60.26;94875.69;5036171;28;20453;-78
2022/03/29 05:10:01;;;;;;;24.20;12.90;;;;;;;11.67;58.57;94877.66;5036458;28;20459;-77
2022/03/29 05:12:28;;;;;;;21.30;12.67;;;;;;;11.86;57.75;94876.06;5036210;28;20448;-78
2022/03/29 05:14:54;;;;;;;27.37;13.03;;;;;;;12.14;57.12;94884.88;5036855;28;20475;-77
2022/03/29 05:17:21;;;;;;;16.70;14.43;;;;;;;12.41;56.46;94877.94;5036430;28;20454;-77
2022/03/29 05:19:49;;;;;;;32.77;14.30;;;;;;;12.78;55.42;94877.16;5036264;28;20478;-77
2022/03/29 05:22:16;;;;;;;24.93;14.73;;;;;;;13.10;53.84;94868.03;5035902;28;20438;-78
2022/03/29 05:24:43;;;;;;;32.97;21.30;;;;;;;13.29;52.54;94868.75;5036174;28;20443;-78
2022/03/29 05:27:10;;;;;;;25.77;18.50;;;;;;;13.55;52.00;94868.91;5016329;28;20458;-78
2022/03/29 05:29:37;;;;;;;55.37;29.63;;;;;;;13.74;52.08;94870.59;5034477;28;20449;-78
2022/03/29 05:32:05;;;;;;;142.60;63.73;;;;;;;14.00;51.57;94867.19;5034610;28;20453;-77
2022/03/29 05:34:31;;;;;;;105.67;47.33;;;;;;;14.36;50.23;94873.25;4999835;28;20533;-78
2022/03/29 05:37:00;;;;;;;35.93;19.57;;;;;;;14.63;49.30;94865.25;5034291;28;20446;-79
2022/03/29 05:39:27;;;;;;;20.33;14.10;;;;;;;15.00;48.55;94864.94;5034285;28;20485;-77
2022/03/29 05:41:54;;;;;;;22.53;13.17;;;;;;;15.22;47.64;94868.03;4999423;28;20438;-78
2022/03/29 05:44:20;;;;;;;24.23;14.97;;;;;;;15.15;47.67;94870.50;5034420;28;20446;-78
2022/03/29 05:49:32;;;;;;;58.67;26.83;;;;;;;15.24;47.36;94866.06;5018925;28;20790;-78
2022/03/29 05:52:00;;;;;;;25.67;16.13;;;;;;;15.43;46.78;94863.16;5034742;28;20809;-78
2022/03/29 05:54:27;;;;;;;31.23;24.07;;;;;;;15.48;45.88;94856.41;5034524;28;20516;-78
2022/03/29 05:56:54;;;;;;;78.63;52.33;;;;;;;15.49;46.15;94863.34;5034351;28;20446;-78
2022/03/29 05:59:21;;;;;;;21.07;15.93;;;;;;;15.44;46.15;94854.25;5034179;28;20455;-78
2022/03/29 06:01:48;;;;;;;24.70;15.43;;;;;;;15.46;46.54;94868.97;5034125;28;20457;-78
2022/03/29 06:04:17;;;;;;;26.50;19.07;;;;;;;15.62;46.63;94867.41;5015525;28;20996;-78
2022/03/29 06:06:45;;;;;;;28.13;17.70;;;;;;;15.77;45.92;94871.88;5033858;28;20457;-77
2022/03/29 06:09:13;;;;;;;25.40;18.07;;;;;;;15.96;45.81;94876.06;5033926;28;20445;-77
2022/03/29 06:11:40;;;;;;;27.57;17.20;;;;;;;16.13;45.59;94866.31;5033769;28;20954;-76
2022/03/29 06:14:07;;;;;;;28.33;19.57;;;;;;;16.34;44.67;94857.88;5033752;28;20453;-77
2022/03/29 06:16:34;;;;;;;26.17;17.23;;;;;;;16.41;44.42;94864.16;5034020;28;20482;-77
2022/03/29 06:19:01;;;;;;;21.63;16.97;;;;;;;16.39;44.97;94853.72;5033688;28;20443;-76
2022/03/29 06:21:27;;;;;;;26.53;17.50;;;;;;;16.65;44.10;94858.03;5033632;28;20486;-77
2022/03/29 06:23:54;;;;;;;31.63;17.10;;;;;;;16.99;44.13;94860.47;5033738;28;20439;-77
2022/03/29 06:26:23;;;;;;;28.73;16.23;;;;;;;17.29;43.39;94854.38;5034108;28;20450;-77
2022/03/29 06:28:50;;;;;;;22.57;15.80;;;;;;;17.37;43.33;94858.03;5033526;28;20457;-78
2022/03/29 06:31:17;;;;;;;22.87;16.87;;;;;;;17.30;43.33;94855.22;5033567;28;20859;-78
2022/03/29 06:33:43;;;;;;;24.97;16.90;;;;;;;16.96;43.26;94851.03;5033828;28;20465;-76
2022/03/29 06:36:11;;;;;;;23.93;15.80;;;;;;;17.04;43.74;94851.00;5033644;28;20447;-79
2022/03/29 06:38:38;;;;;;;27.37;15.47;;;;;;;17.24;43.81;94856.75;5033627;28;20455;-77
2022/03/29 06:41:05;;;;;;;21.03;15.83;;;;;;;17.27;43.55;94851.09;5033105;28;20553;-78
2022/03/29 06:43:36;;;;;;;25.57;16.00;;;;;;;17.37;43.00;94850.06;5033264;28;20447;-78
2022/03/29 06:46:03;;;;;;;22.90;16.80;;;;;;;17.52;42.86;94854.47;5033203;28;20447;-77
2022/03/29 06:48:30;;;;;;;27.27;17.00;;;;;;;17.33;42.58;94845.09;4998190;28;20447;-78
2022/03/29 06:50:58;;;;;;;26.40;15.67;;;;;;;16.98;44.30;94842.91;5032928;28;20442;-78
2022/03/29 06:53:25;;;;;;;22.50;16.27;;;;;;;16.87;44.18;94848.56;4997925;28;20439;-78
2022/03/29 06:55:52;;;;;;;23.00;15.40;;;;;;;16.72;44.98;94841.31;5033405;28;20437;-78
2022/03/29 06:58:19;;;;;;;20.30;15.60;;;;;;;16.76;43.95;94838.31;5033421;28;20430;-78
2022/03/29 07:00:47;;;;;;;24.53;14.33;;;;;;;16.18;44.99;94848.09;5028666;28;20487;-77
2022/03/29 07:03:14;;;;;;;24.50;14.80;;;;;;;15.94;46.12;94835.69;5019514;28;20454;-78
2022/03/29 07:05:42;;;;;;;28.73;15.90;;;;;;;16.00;45.40;94840.34;5053843;28;20450;-77
2022/03/29 07:08:11;;;;;;;18.30;16.10;;;;;;;15.92;45.96;94832.41;5053894;28;20442;-78
2022/03/29 07:13:22;;;;;;;17.33;14.00;;;;;;;16.89;44.25;94835.97;5054347;28;20772;-78
2022/03/29 07:15:51;;;;;;;20.73;14.20;;;;;;;17.08;43.57;94829.47;5018802;28;20952;-78
2022/03/29 07:18:18;;;;;;;20.63;15.33;;;;;;;16.90;44.02;94825.22;5053870;28;20473;-78
2022/03/29 07:20:45;;;;;;;21.10;14.10;;;;;;;17.10;44.15;94822.16;5053911;28;20470;-78
2022/03/29 07:23:12;;;;;;;27.53;14.70;;;;;;;17.05;44.18;94827.97;5053661;28;20446;-78
2022/03/29 07:25:40;;;;;;;22.00;13.90;;;;;;;16.81;44.54;94822.75;5054062;28;20792;-78
2022/03/29 07:28:11;;;;;;;22.13;14.67;;;;;;;17.02;44.28;94823.81;5053556;28;20434;-77
2022/03/29 07:30:41;;;;;;;21.33;14.20;;;;;;;17.21;43.25;94819.97;5053859;28;20445;-77
2022/03/29 07:33:10;;;;;;;26.60;15.23;;;;;;;17.12;43.45;94814.88;5053687;28;20430;-78
2022/03/29 07:35:37;;;;;;;33.63;13.70;;;;;;;17.18;43.39;94812.34;5054284;28;20452;-77
2022/03/29 07:38:07;;;;;;;17.40;12.87;;;;;;;17.45;42.84;94812.88;5054183;28;20429;-78
2022/03/29 07:40:35;;;;;;;17.23;12.93;;;;;;;17.59;42.50;94817.44;5053357;28;20489;-78
2022/03/29 07:43:03;;;;;;;16.63;13.07;;;;;;;17.18;42.70;94815.00;5053641;28;20438;-78
2022/03/29 07:45:29;;;;;;;22.50;13.00;;;;;;;17.57;42.23;94808.84;5053816;28;20849;-78
2022/03/29 07:47:57;;;;;;;17.17;13.53;;;;;;;17.81;40.97;94815.84;5054068;28;20902;-78
2022/03/29 07:50:27;;;;;;;17.93;13.17;;;;;;;17.76;41.02;94813.72;5053871;28;20445;-78
2022/03/29 07:52:57;;;;;;;17.83;12.37;;;;;;;17.67;41.04;94813.94;5053779;28;20438;-78
2022/03/29 07:55:24;;;;;;;18.10;12.53;;;;;;;18.05;40.79;94805.06;5053168;28;20642;-77
2022/03/29 07:57:51;;;;;;;19.53;11.70;;;;;;;17.98;39.05;94808.63;5053114;28;20944;-78
2022/03/29 08:00:33;;;;;;;17.97;11.10;;;;;;;18.14;39.73;94803.16;5053098;28;20474;-77
2022/03/29 08:03:01;;;;;;;18.70;11.77;;;;;;;18.02;39.08;94797.47;5053646;28;20783;-78
2022/03/29 08:05:30;;;;;;;18.33;11.27;;;;;;;17.92;40.13;94792.38;5053067;28;20456;-77
2022/03/29 08:07:58;;;;;;;17.47;11.80;;;;;;;18.23;39.45;94794.16;5053890;28;20457;-78
2022/03/29 08:10:25;;;;;;;15.90;10.33;;;;;;;18.31;39.45;94791.41;5022177;28;21018;-78
2022/03/29 08:12:52;;;;;;;18.43;11.90;;;;;;;18.38;39.08;94792.34;5057880;28;20827;-78
2022/03/29 08:15:19;;;;;;;17.07;11.90;;;;;;;18.50;38.82;94790.91;5057528;28;20466;-78
2022/03/29 08:17:48;;;;;;;16.40;11.20;;;;;;;18.51;38.22;94789.06;5057168;28;20500;-77
2022/03/29 08:20:15;;;;;;;15.73;10.77;;;;;;;18.45;37.70;94781.81;5022617;28;20446;-78
2022/03/29 08:22:44;;;;;;;16.50;11.27;;;;;;;18.48;37.60;94782.25;5057059;28;20905;-78
2022/03/29 08:25:13;;;;;;;12.10;10.13;;;;;;;18.48;38.13;94770.81;5057237;28;20453;-78
2022/03/29 08:27:40;;;;;;;16.30;10.93;;;;;;;18.62;38.11;94771.84;5056823;28;20446;-78
2022/03/29 08:30:08;;;;;;;20.70;10.23;;;;;;;18.79;37.77;94768.88;5057197;28;20512;-78
2022/03/29 08:32:35;;;;;;;19.47;10.67;;;;;;;19.00;36.90;94765.47;5057407;28;20446;-78
2022/03/29 08:35:02;;;;;;;14.03;10.40;;;;;;;19.06;36.27;94762.06;5057346;28;20448;-78
2022/03/29 08:37:30;;;;;;;12.03;8.63;;;;;;;18.66;35.98;94757.22;5057409;28;20526;-78
2022/03/29 08:39:58;;;;;;;12.27;10.37;;;;;;;18.78;36.07;94758.41;5057199;28;20929;-78
2022/03/29 08:42:25;;;;;;;13.00;8.90;;;;;;;18.84;35.11;94747.06;5057454;28;20484;-78
2022/03/29 08:44:52;;;;;;;13.53;10.87;;;;;;;19.08;35.44;94744.09;5056740;28;20441;-77
2022/03/29 08:47:19;;;;;;;11.43;9.13;;;;;;;19.15;34.83;94738.84;5055730;28;20446;-78
2022/03/29 08:49:49;;;;;;;10.40;9.40;;;;;;;19.18;35.51;94735.81;5020377;28;20448;-78
2022/03/29 08:52:18;;;;;;;13.03;8.90;;;;;;;19.16;35.00;94733.34;5037285;28;20886;-78
2022/03/29 08:54:45;;;;;;;22.60;9.73;;;;;;;19.18;35.30;94735.81;5055846;28;20446;-76
2022/03/29 08:57:15;;;;;;;13.13;9.90;;;;;;;19.14;34.83;94730.06;5055646;28;20446;-78
2022/03/29 08:59:42;;;;;;;17.53;9.43;;;;;;;19.11;34.03;94727.75;5055865;28;20442;-78
2022/03/29 09:02:12;;;;;;;14.17;8.73;;;;;;;19.05;34.58;94725.81;5055442;28;20583;-78
2022/03/29 09:04:40;;;;;;;11.87;8.67;;;;;;;19.15;34.67;94723.72;5055628;28;20449;-78
2022/03/29 09:07:07;;;;;;;17.67;8.70;;;;;;;18.94;34.54;94718.34;5055737;28;20468;-77
2022/03/29 09:09:35;;;;;;;13.40;9.40;;;;;;;18.90;34.99;94716.22;5055571;28;20544;-78
2022/03/29 09:12:12;;;;;;;15.83;9.07;;;;;;;19.13;34.34;94707.13;5055915;28;20488;-78
2022/03/29 09:14:54;;;;;;;16.53;8.87;;;;;;;19.23;33.93;94700.66;5055636;28;20972;-78
2022/03/29 09:17:30;;;;;;;12.83;7.67;;;;;;;18.91;33.76;94697.44;5056751;28;20446;-78
2022/03/29 09:19:58;;;;;;;19.43;8.80;;;;;;;18.92;33.47;94693.75;5056211;28;20905;-78
2022/03/29 09:22:39;;;;;;;15.80;8.77;;;;;;;18.87;33.74;94686.34;5056177;28;20652;-78
2022/03/29 09:25:07;;;;;;;21.63;8.60;;;;;;;19.08;33.34;94682.06;5056771;28;20827;-78
2022/03/29 09:27:53;;;;;;;17.70;9.20;;;;;;;19.17;34.13;94684.44;5056484;28;20429;-77
2022/03/29 09:30:22;;;;;;;11.80;8.30;;;;;;;19.28;34.31;94677.81;5056130;28;20897;-78
2022/03/29 09:32:54;;;;;;;23.77;9.83;;;;;;;19.17;34.09;94684.44;5056120;28;20916;-78
2022/03/29 09:35:21;;;;;;;11.53;8.00;;;;;;;18.90;34.21;94673.69;5056103;28;20452;-78
2022/03/29 09:37:48;;;;;;;12.70;8.33;;;;;;;18.69;34.60;94674.44;5055993;28;20775;-77
2022/03/29 09:40:16;;;;;;;19.43;9.33;;;;;;;18.86;34.96;94667.94;5056384;28;20441;-77
2022/03/29 09:42:59;;;;;;;16.27;8.50;;;;;;;18.71;33.92;94675.09;5055494;28;20488;-77
2022/03/29 09:45:41;;;;;;;24.60;8.63;;;;;;;18.92;34.08;94659.19;5037112;28;20446;-78
2022/03/29 09:48:29;;;;;;;14.50;8.90;;;;;;;19.00;33.54;94663.56;5056090;28;20453;-77
2022/03/29 09:50:58;;;;;;;15.03;9.43;;;;;;;19.15;33.26;94649.25;5055682;28;20921;-78
2022/03/29 09:53:35;;;;;;;18.00;8.30;;;;;;;19.12;31.90;94652.28;5055866;28;20797;-78
2022/03/29 09:56:03;;;;;;;14.80;8.87;;;;;;;19.21;32.27;94652.16;5055932;28;20437;-76
2022/03/29 09:58:30;;;;;;;8.77;6.97;;;;;;;19.26;31.58;94641.75;5037255;28;20453;-78
2022/03/29 10:00:59;;;;;;;15.33;7.37;;;;;;;19.29;32.39;94652.03;5055609;28;20496;-77
2022/03/29 10:03:26;;;;;;;19.67;8.60;;;;;;;19.33;31.82;94638.16;5036845;28;20438;-77
2022/03/29 10:06:01;;;;;;;14.73;8.57;;;;;;;19.41;30.97;94634.56;5055251;28;20430;-78
2022/03/29 10:11:14;;;;;;;21.63;8.43;;;;;;;19.33;31.95;94629.34;5055095;28;20425;-77
2022/03/29 10:13:42;;;;;;;21.20;9.20;;;;;;;19.34;32.32;94620.34;5055703;28;20757;-78
2022/03/29 10:16:14;;;;;;;17.23;8.47;;;;;;;19.45;32.34;94619.84;5055733;28;20469;-77
2022/03/29 10:18:42;;;;;;;27.20;9.80;;;;;;;19.35;31.98;94620.16;5020090;28;20450;-77
2022/03/29 10:21:12;;;;;;;19.03;9.20;;;;;;;19.28;31.56;94605.97;5055029;28;20562;-77
2022/03/29 10:23:40;;;;;;;23.47;9.43;;;;;;;19.31;32.03;94602.09;5054955;28;20924;-77
2022/03/29 10:26:08;;;;;;;19.40;8.80;;;;;;;19.32;33.07;94599.25;5055020;28;20857;-78
2022/03/29 10:28:35;;;;;;;16.30;8.70;;;;;;;19.22;32.29;94603.25;5019415;28;20429;-78
2022/03/29 10:31:02;;;;;;;16.63;7.70;;;;;;;19.11;32.47;94607.25;5019483;28;20434;-77
2022/03/29 10:33:33;;;;;;;14.70;7.83;;;;;;;18.99;32.60;94601.59;5053282;28;21043;-78
2022/03/29 10:36:08;;;;;;;20.00;8.20;;;;;;;19.11;33.18;94594.78;5055002;28;20449;-76
2022/03/29 10:38:58;;;;;;;12.77;7.83;;;;;;;19.33;33.02;94589.44;5054827;28;20520;-77
2022/03/29 10:41:55;;;;;;;23.43;8.93;;;;;;;19.50;32.89;94590.81;5054776;28;20619;-77
2022/03/29 10:44:22;;;;;;;25.13;9.13;;;;;;;19.57;32.35;94580.25;4993484;28;20796;-77
2022/03/29 10:46:51;;;;;;;15.30;8.50;;;;;;;19.72;32.07;94586.31;4992755;28;20449;-77
2022/03/29 10:49:25;;;;;;;20.70;9.50;;;;;;;19.80;32.38;94583.50;4993069;28;20448;-77
2022/03/29 10:51:53;;;;;;;30.60;9.00;;;;;;;19.89;31.18;94573.53;4944435;28;20436;-77
2022/03/29 10:54:26;;;;;;;17.90;9.07;;;;;;;19.87;31.43;94570.22;4993015;28;20476;-78
2022/03/29 10:56:57;;;;;;;17.63;8.60;;;;;;;19.85;31.21;94561.63;4992805;28;20444;-78
2022/03/29 10:59:24;;;;;;;23.50;9.03;;;;;;;19.92;31.92;94559.81;4993411;28;20947;-77
2022/03/29 11:02:12;;;;;;;20.27;9.13;;;;;;;20.01;31.66;94554.16;4992579;28;20495;-78
2022/03/29 11:05:04;;;;;;;18.13;8.40;;;;;;;19.59;31.45;94538.28;4992739;28;20526;-77
2022/03/29 11:07:31;;;;;;;18.13;9.40;;;;;;;19.67;32.72;94541.66;4992932;28;20511;-78
2022/03/29 11:10:14;;;;;;;20.67;10.17;;;;;;;19.70;32.76;94543.94;4992506;28;20544;-78
2022/03/29 11:12:45;;;;;;;19.30;8.90;;;;;;;19.70;32.49;94538.59;4992857;28;20453;-77
2022/03/29 11:15:40;;;;;;;22.10;9.23;;;;;;;19.72;32.21;94531.25;4945115;28;20993;-77
2022/03/29 11:18:37;;;;;;;12.43;8.63;;;;;;;19.66;31.89;94526.69;5009117;28;20967;-77
2022/03/29 11:21:06;;;;;;;21.57;8.30;;;;;;;19.64;32.09;94525.22;5034109;28;20446;-78
2022/03/29 11:23:35;;;;;;;20.23;9.70;;;;;;;19.58;32.12;94523.34;5034272;28;20439;-78
2022/03/29 11:26:08;;;;;;;22.17;9.40;;;;;;;19.62;32.62;94519.28;5045057;28;20449;-77
2022/03/29 11:28:35;;;;;;;14.40;7.70;;;;;;;19.64;32.54;94515.41;5053676;28;20968;-78
2022/03/29 11:31:02;;;;;;;16.50;7.00;;;;;;;19.55;32.06;94518.41;5018748;28;20917;-75
2022/03/29 11:33:32;;;;;;;20.80;10.60;;;;;;;19.44;32.57;94506.44;5053877;28;20453;-75
2022/03/29 11:35:59;;;;;;;14.33;9.00;;;;;;;19.38;32.24;94507.22;5053822;28;20499;-77
2022/03/29 11:38:32;;;;;;;29.00;10.20;;;;;;;19.35;32.22;94508.41;5053507;28;20450;-76
2022/03/29 11:40:59;;;;;;;13.73;8.80;;;;;;;19.30;32.61;94502.00;5053483;28;20469;-77
2022/03/29 11:43:26;;;;;;;19.33;9.43;;;;;;;19.27;32.67;94499.75;5018160;28;20485;-76
2022/03/29 11:45:55;;;;;;;23.77;9.40;;;;;;;19.20;33.46;94497.03;5053775;28;20477;-76
2022/03/29 11:48:24;;;;;;;21.60;8.40;;;;;;;19.19;32.83;94498.06;5053619;28;20433;-76
2022/03/29 11:50:53;;;;;;;23.97;9.77;;;;;;;19.18;33.44;94491.09;5053338;28;20454;-76
2022/03/29 11:53:22;;;;;;;15.73;10.20;;;;;;;19.12;33.48;94492.69;5053249;28;20445;-76
2022/03/29 11:56:02;;;;;;;18.40;8.77;;;;;;;19.10;33.46;94494.72;5052977;28;20449;-76